sensor_id;sensor_type;location;lat;lon;timestamp;P1;durP1;ratioP1;P2;durP2;ratioP2
485;SDS011;229;48.734;9.340;2022-10-31T00:02:03;9.48;;;5.85;;
485;SDS011;229;48.734;9.340;2022-10-31T00:04:30;11.05;;;6.40;;
485;SDS011;229;48.734;9.340;2022-10-31T00:06:57;11.20;;;5.75;;
485;SDS011;229;48.734;9.340;2022-10-31T00:09:25;10.65;;;6.03;;
485;SDS011;229;48.734;9.340;2022-10-31T00:11:52;9.13;;;5.28;;
485;SDS011;229;48.734;9.340;2022-10-31T00:14:19;13.13;;;6.78;;
485;SDS011;229;48.734;9.340;2022-10-31T00:16:46;8.48;;;6.30;;
485;SDS011;229;48.734;9.340;2022-10-31T00:19:15;11.07;;;6.40;;
485;SDS011;229;48.734;9.340;2022-10-31T00:21:42;9.55;;;5.40;;
485;SDS011;229;48.734;9.340;2022-10-31T00:24:10;9.23;;;6.13;;
485;SDS011;229;48.734;9.340;2022-10-31T00:26:37;10.55;;;6.18;;
485;SDS011;229;48.734;9.340;2022-10-31T00:29:04;10.70;;;6.38;;
485;SDS011;229;48.734;9.340;2022-10-31T00:31:31;13.77;;;6.35;;
485;SDS011;229;48.734;9.340;2022-10-31T00:33:58;10.77;;;6.43;;
485;SDS011;229;48.734;9.340;2022-10-31T00:36:29;11.52;;;6.35;;
485;SDS011;229;48.734;9.340;2022-10-31T00:38:57;12.80;;;5.90;;
485;SDS011;229;48.734;9.340;2022-10-31T00:41:26;10.82;;;6.15;;
485;SDS011;229;48.734;9.340;2022-10-31T00:43:55;15.15;;;6.70;;
485;SDS011;229;48.734;9.340;2022-10-31T00:46:22;8.13;;;5.00;;
485;SDS011;229;48.734;9.340;2022-10-31T00:48:49;13.07;;;6.35;;
485;SDS011;229;48.734;9.340;2022-10-31T00:51:16;7.93;;;5.65;;
485;SDS011;229;48.734;9.340;2022-10-31T00:53:45;20.70;;;7.25;;
485;SDS011;229;48.734;9.340;2022-10-31T00:56:12;21.92;;;6.95;;
485;SDS011;229;48.734;9.340;2022-10-31T00:58:39;11.93;;;7.15;;
485;SDS011;229;48.734;9.340;2022-10-31T01:01:06;10.18;;;5.63;;
485;SDS011;229;48.734;9.340;2022-10-31T01:03:33;13.27;;;6.20;;
485;SDS011;229;48.734;9.340;2022-10-31T01:06:01;10.60;;;6.22;;
485;SDS011;229;48.734;9.340;2022-10-31T01:08:29;12.25;;;6.47;;
485;SDS011;229;48.734;9.340;2022-10-31T01:11:05;12.77;;;6.35;;
485;SDS011;229;48.734;9.340;2022-10-31T01:13:33;16.73;;;6.43;;
485;SDS011;229;48.734;9.340;2022-10-31T01:16:00;9.95;;;5.38;;
485;SDS011;229;48.734;9.340;2022-10-31T01:18:28;12.65;;;6.85;;
485;SDS011;229;48.734;9.340;2022-10-31T01:20:59;12.90;;;6.18;;
485;SDS011;229;48.734;9.340;2022-10-31T01:23:26;10.73;;;6.50;;
485;SDS011;229;48.734;9.340;2022-10-31T01:26:01;13.10;;;6.18;;
485;SDS011;229;48.734;9.340;2022-10-31T01:28:29;10.95;;;5.90;;
485;SDS011;229;48.734;9.340;2022-10-31T01:30:59;12.93;;;6.05;;
485;SDS011;229;48.734;9.340;2022-10-31T01:33:27;8.60;;;5.70;;
485;SDS011;229;48.734;9.340;2022-10-31T01:35:54;14.43;;;6.50;;
485;SDS011;229;48.734;9.340;2022-10-31T01:38:21;15.10;;;7.15;;
485;SDS011;229;48.734;9.340;2022-10-31T01:40:49;17.30;;;6.95;;
485;SDS011;229;48.734;9.340;2022-10-31T01:43:16;11.02;;;6.10;;
485;SDS011;229;48.734;9.340;2022-10-31T01:45:46;11.02;;;6.40;;
485;SDS011;229;48.734;9.340;2022-10-31T01:48:15;12.18;;;6.15;;
485;SDS011;229;48.734;9.340;2022-10-31T01:50:43;11.57;;;7.00;;
485;SDS011;229;48.734;9.340;2022-10-31T01:53:12;13.57;;;6.18;;
485;SDS011;229;48.734;9.340;2022-10-31T01:55:40;10.55;;;6.53;;
485;SDS011;229;48.734;9.340;2022-10-31T01:58:09;12.15;;;6.22;;
485;SDS011;229;48.734;9.340;2022-10-31T02:00:38;8.52;;;5.93;;
485;SDS011;229;48.734;9.340;2022-10-31T02:03:07;16.15;;;6.57;;
485;SDS011;229;48.734;9.340;2022-10-31T02:05:34;13.50;;;6.57;;
485;SDS011;229;48.734;9.340;2022-10-31T02:08:02;10.15;;;6.75;;
485;SDS011;229;48.734;9.340;2022-10-31T02:10:31;15.98;;;7.43;;
485;SDS011;229;48.734;9.340;2022-10-31T02:12:59;15.32;;;7.70;;
485;SDS011;229;48.734;9.340;2022-10-31T02:15:28;10.88;;;6.13;;
485;SDS011;229;48.734;9.340;2022-10-31T02:17:55;17.58;;;6.65;;
485;SDS011;229;48.734;9.340;2022-10-31T02:20:24;13.35;;;6.80;;
485;SDS011;229;48.734;9.340;2022-10-31T02:23:05;10.15;;;6.15;;
485;SDS011;229;48.734;9.340;2022-10-31T02:25:42;11.63;;;7.22;;
485;SDS011;229;48.734;9.340;2022-10-31T02:31:00;13.10;;;6.30;;
485;SDS011;229;48.734;9.340;2022-10-31T02:33:32;14.70;;;7.03;;
485;SDS011;229;48.734;9.340;2022-10-31T02:36:08;11.35;;;6.38;;
485;SDS011;229;48.734;9.340;2022-10-31T02:38:40;9.50;;;6.50;;
485;SDS011;229;48.734;9.340;2022-10-31T02:41:11;12.18;;;7.05;;
485;SDS011;229;48.734;9.340;2022-10-31T02:43:42;11.93;;;7.30;;
485;SDS011;229;48.734;9.340;2022-10-31T02:46:13;8.63;;;6.45;;
485;SDS011;229;48.734;9.340;2022-10-31T02:48:41;11.15;;;6.53;;
485;SDS011;229;48.734;9.340;2022-10-31T02:51:10;17.90;;;7.30;;
485;SDS011;229;48.734;9.340;2022-10-31T02:53:38;11.20;;;6.95;;
485;SDS011;229;48.734;9.340;2022-10-31T02:56:06;11.82;;;7.30;;
485;SDS011;229;48.734;9.340;2022-10-31T02:58:34;12.55;;;7.53;;
485;SDS011;229;48.734;9.340;2022-10-31T03:03:50;11.85;;;6.65;;
485;SDS011;229;48.734;9.340;2022-10-31T03:06:20;11.32;;;6.68;;
485;SDS011;229;48.734;9.340;2022-10-31T03:08:53;11.35;;;7.03;;
485;SDS011;229;48.734;9.340;2022-10-31T03:11:22;10.52;;;6.82;;
485;SDS011;229;48.734;9.340;2022-10-31T03:13:50;12.68;;;6.35;;
485;SDS011;229;48.734;9.340;2022-10-31T03:16:30;12.40;;;7.13;;
485;SDS011;229;48.734;9.340;2022-10-31T03:19:03;12.68;;;6.35;;
485;SDS011;229;48.734;9.340;2022-10-31T03:21:32;15.52;;;6.50;;
485;SDS011;229;48.734;9.340;2022-10-31T03:24:00;10.02;;;7.05;;
485;SDS011;229;48.734;9.340;2022-10-31T03:26:28;10.70;;;7.13;;
485;SDS011;229;48.734;9.340;2022-10-31T03:28:56;12.85;;;6.70;;
485;SDS011;229;48.734;9.340;2022-10-31T03:31:25;10.00;;;6.10;;
485;SDS011;229;48.734;9.340;2022-10-31T03:33:54;9.40;;;6.15;;
485;SDS011;229;48.734;9.340;2022-10-31T03:36:24;11.50;;;6.50;;
485;SDS011;229;48.734;9.340;2022-10-31T03:38:52;12.70;;;6.40;;
485;SDS011;229;48.734;9.340;2022-10-31T03:41:21;10.50;;;6.35;;
485;SDS011;229;48.734;9.340;2022-10-31T03:43:51;15.70;;;6.82;;
485;SDS011;229;48.734;9.340;2022-10-31T03:46:19;16.00;;;7.53;;
485;SDS011;229;48.734;9.340;2022-10-31T03:48:46;9.57;;;5.35;;
485;SDS011;229;48.734;9.340;2022-10-31T03:51:14;8.98;;;5.88;;
485;SDS011;229;48.734;9.340;2022-10-31T03:53:47;12.68;;;6.00;;
485;SDS011;229;48.734;9.340;2022-10-31T03:56:17;11.57;;;5.78;;
485;SDS011;229;48.734;9.340;2022-10-31T03:58:47;16.52;;;6.70;;
485;SDS011;229;48.734;9.340;2022-10-31T04:01:16;12.38;;;6.03;;
485;SDS011;229;48.734;9.340;2022-10-31T04:03:44;12.07;;;6.78;;
485;SDS011;229;48.734;9.340;2022-10-31T04:06:12;10.23;;;7.53;;
485;SDS011;229;48.734;9.340;2022-10-31T04:08:41;15.13;;;6.60;;
485;SDS011;229;48.734;9.340;2022-10-31T04:11:12;12.10;;;6.90;;
485;SDS011;229;48.734;9.340;2022-10-31T04:13:40;7.35;;;5.53;;
485;SDS011;229;48.734;9.340;2022-10-31T04:16:09;15.07;;;6.22;;
485;SDS011;229;48.734;9.340;2022-10-31T04:18:37;11.57;;;7.13;;
485;SDS011;229;48.734;9.340;2022-10-31T04:21:05;8.68;;;5.57;;
485;SDS011;229;48.734;9.340;2022-10-31T04:23:33;14.63;;;6.75;;
485;SDS011;229;48.734;9.340;2022-10-31T04:26:00;11.48;;;6.00;;
485;SDS011;229;48.734;9.340;2022-10-31T04:28:29;21.73;;;6.63;;
485;SDS011;229;48.734;9.340;2022-10-31T04:30:57;11.00;;;6.63;;
485;SDS011;229;48.734;9.340;2022-10-31T04:33:25;11.18;;;5.80;;
485;SDS011;229;48.734;9.340;2022-10-31T04:35:52;12.52;;;6.68;;
485;SDS011;229;48.734;9.340;2022-10-31T04:38:19;14.70;;;6.70;;
485;SDS011;229;48.734;9.340;2022-10-31T04:40:46;8.85;;;6.10;;
485;SDS011;229;48.734;9.340;2022-10-31T04:43:13;9.40;;;5.72;;
485;SDS011;229;48.734;9.340;2022-10-31T04:45:42;11.50;;;5.85;;
485;SDS011;229;48.734;9.340;2022-10-31T04:48:09;8.50;;;5.30;;
485;SDS011;229;48.734;9.340;2022-10-31T04:50:36;9.02;;;6.22;;
485;SDS011;229;48.734;9.340;2022-10-31T04:53:03;14.65;;;6.25;;
485;SDS011;229;48.734;9.340;2022-10-31T04:55:34;10.98;;;6.10;;
485;SDS011;229;48.734;9.340;2022-10-31T04:58:02;12.23;;;5.78;;
485;SDS011;229;48.734;9.340;2022-10-31T05:00:29;8.48;;;5.25;;
485;SDS011;229;48.734;9.340;2022-10-31T05:02:57;10.02;;;6.00;;
485;SDS011;229;48.734;9.340;2022-10-31T05:05:27;8.38;;;5.45;;
485;SDS011;229;48.734;9.340;2022-10-31T05:07:55;14.70;;;5.90;;
485;SDS011;229;48.734;9.340;2022-10-31T05:10:23;9.77;;;6.18;;
485;SDS011;229;48.734;9.340;2022-10-31T05:12:51;11.18;;;5.13;;
485;SDS011;229;48.734;9.340;2022-10-31T05:15:19;9.88;;;6.13;;
485;SDS011;229;48.734;9.340;2022-10-31T05:17:46;14.32;;;6.28;;
485;SDS011;229;48.734;9.340;2022-10-31T05:20:15;9.70;;;6.32;;
485;SDS011;229;48.734;9.340;2022-10-31T05:22:43;11.70;;;6.45;;
485;SDS011;229;48.734;9.340;2022-10-31T05:25:10;10.93;;;6.53;;
485;SDS011;229;48.734;9.340;2022-10-31T05:27:38;11.13;;;6.20;;
485;SDS011;229;48.734;9.340;2022-10-31T05:30:06;9.20;;;5.68;;
485;SDS011;229;48.734;9.340;2022-10-31T05:32:36;9.50;;;5.82;;
485;SDS011;229;48.734;9.340;2022-10-31T05:35:03;9.13;;;6.20;;
485;SDS011;229;48.734;9.340;2022-10-31T05:37:34;14.02;;;6.75;;
485;SDS011;229;48.734;9.340;2022-10-31T05:40:01;13.27;;;7.93;;
485;SDS011;229;48.734;9.340;2022-10-31T05:42:28;12.65;;;6.35;;
485;SDS011;229;48.734;9.340;2022-10-31T05:44:56;11.02;;;6.00;;
485;SDS011;229;48.734;9.340;2022-10-31T05:47:23;9.90;;;6.25;;
485;SDS011;229;48.734;9.340;2022-10-31T05:49:50;10.88;;;6.53;;
485;SDS011;229;48.734;9.340;2022-10-31T05:52:17;10.43;;;6.28;;
485;SDS011;229;48.734;9.340;2022-10-31T05:54:46;9.82;;;6.50;;
485;SDS011;229;48.734;9.340;2022-10-31T05:57:13;8.38;;;6.20;;
485;SDS011;229;48.734;9.340;2022-10-31T05:59:40;12.52;;;6.32;;
485;SDS011;229;48.734;9.340;2022-10-31T06:02:07;8.50;;;5.90;;
485;SDS011;229;48.734;9.340;2022-10-31T06:04:35;9.88;;;6.05;;
485;SDS011;229;48.734;9.340;2022-10-31T06:07:02;10.25;;;6.38;;
485;SDS011;229;48.734;9.340;2022-10-31T06:09:29;8.30;;;6.85;;
485;SDS011;229;48.734;9.340;2022-10-31T06:11:57;9.13;;;6.38;;
485;SDS011;229;48.734;9.340;2022-10-31T06:14:25;7.88;;;6.20;;
485;SDS011;229;48.734;9.340;2022-10-31T06:16:52;13.93;;;6.97;;
485;SDS011;229;48.734;9.340;2022-10-31T06:19:20;10.50;;;7.00;;
485;SDS011;229;48.734;9.340;2022-10-31T06:21:47;12.45;;;7.30;;
485;SDS011;229;48.734;9.340;2022-10-31T06:24:15;12.43;;;7.50;;
485;SDS011;229;48.734;9.340;2022-10-31T06:26:42;11.32;;;6.35;;
485;SDS011;229;48.734;9.340;2022-10-31T06:29:10;9.18;;;6.90;;
485;SDS011;229;48.734;9.340;2022-10-31T06:31:37;10.18;;;6.45;;
485;SDS011;229;48.734;9.340;2022-10-31T06:34:05;13.32;;;7.13;;
485;SDS011;229;48.734;9.340;2022-10-31T06:36:32;11.52;;;6.72;;
485;SDS011;229;48.734;9.340;2022-10-31T06:38:59;14.38;;;6.50;;
485;SDS011;229;48.734;9.340;2022-10-31T06:41:26;10.60;;;6.78;;
485;SDS011;229;48.734;9.340;2022-10-31T06:43:54;10.15;;;6.32;;
485;SDS011;229;48.734;9.340;2022-10-31T06:46:22;9.85;;;6.05;;
485;SDS011;229;48.734;9.340;2022-10-31T06:48:49;8.90;;;6.63;;
485;SDS011;229;48.734;9.340;2022-10-31T06:51:16;13.23;;;8.45;;
485;SDS011;229;48.734;9.340;2022-10-31T06:53:44;10.18;;;6.55;;
485;SDS011;229;48.734;9.340;2022-10-31T06:56:11;12.70;;;6.75;;
485;SDS011;229;48.734;9.340;2022-10-31T06:58:38;10.52;;;7.20;;
485;SDS011;229;48.734;9.340;2022-10-31T07:01:05;10.40;;;6.72;;
485;SDS011;229;48.734;9.340;2022-10-31T07:03:34;11.82;;;6.70;;
485;SDS011;229;48.734;9.340;2022-10-31T07:06:01;7.85;;;6.32;;
485;SDS011;229;48.734;9.340;2022-10-31T07:08:28;11.35;;;6.57;;
485;SDS011;229;48.734;9.340;2022-10-31T07:10:56;12.48;;;5.95;;
485;SDS011;229;48.734;9.340;2022-10-31T07:13:24;18.35;;;6.72;;
485;SDS011;229;48.734;9.340;2022-10-31T07:15:51;9.30;;;6.75;;
485;SDS011;229;48.734;9.340;2022-10-31T07:18:19;10.82;;;6.55;;
485;SDS011;229;48.734;9.340;2022-10-31T07:20:48;8.57;;;6.30;;
485;SDS011;229;48.734;9.340;2022-10-31T07:23:15;16.10;;;8.50;;
485;SDS011;229;48.734;9.340;2022-10-31T07:25:42;20.88;;;8.90;;
485;SDS011;229;48.734;9.340;2022-10-31T07:28:09;21.02;;;8.25;;
485;SDS011;229;48.734;9.340;2022-10-31T07:30:37;17.33;;;8.52;;
485;SDS011;229;48.734;9.340;2022-10-31T07:33:04;17.02;;;9.10;;
485;SDS011;229;48.734;9.340;2022-10-31T07:35:31;13.68;;;8.85;;
485;SDS011;229;48.734;9.340;2022-10-31T07:38:07;16.50;;;8.68;;
485;SDS011;229;48.734;9.340;2022-10-31T07:40:35;12.07;;;8.10;;
485;SDS011;229;48.734;9.340;2022-10-31T07:43:02;18.80;;;8.90;;
485;SDS011;229;48.734;9.340;2022-10-31T07:45:29;20.10;;;8.38;;
485;SDS011;229;48.734;9.340;2022-10-31T07:47:56;16.63;;;8.80;;
485;SDS011;229;48.734;9.340;2022-10-31T07:50:24;16.15;;;8.43;;
485;SDS011;229;48.734;9.340;2022-10-31T07:52:58;18.63;;;9.10;;
485;SDS011;229;48.734;9.340;2022-10-31T07:55:27;17.02;;;9.60;;
485;SDS011;229;48.734;9.340;2022-10-31T07:57:55;13.82;;;8.80;;
485;SDS011;229;48.734;9.340;2022-10-31T08:00:22;17.13;;;9.38;;
485;SDS011;229;48.734;9.340;2022-10-31T08:02:56;20.15;;;8.82;;
485;SDS011;229;48.734;9.340;2022-10-31T08:05:23;18.58;;;8.75;;
485;SDS011;229;48.734;9.340;2022-10-31T08:07:50;19.70;;;8.77;;
485;SDS011;229;48.734;9.340;2022-10-31T08:10:17;16.20;;;7.50;;
485;SDS011;229;48.734;9.340;2022-10-31T08:12:46;15.65;;;7.85;;
485;SDS011;229;48.734;9.340;2022-10-31T08:15:13;17.52;;;7.53;;
485;SDS011;229;48.734;9.340;2022-10-31T08:17:40;14.25;;;8.27;;
485;SDS011;229;48.734;9.340;2022-10-31T08:20:08;11.43;;;7.47;;
485;SDS011;229;48.734;9.340;2022-10-31T08:22:35;15.93;;;9.75;;
485;SDS011;229;48.734;9.340;2022-10-31T08:25:03;10.98;;;6.80;;
485;SDS011;229;48.734;9.340;2022-10-31T08:27:30;19.27;;;8.05;;
485;SDS011;229;48.734;9.340;2022-10-31T08:29:58;13.93;;;8.02;;
485;SDS011;229;48.734;9.340;2022-10-31T08:32:25;22.23;;;6.93;;
485;SDS011;229;48.734;9.340;2022-10-31T08:34:53;12.45;;;7.30;;
485;SDS011;229;48.734;9.340;2022-10-31T08:37:20;11.43;;;7.05;;
485;SDS011;229;48.734;9.340;2022-10-31T08:39:47;13.30;;;6.57;;
485;SDS011;229;48.734;9.340;2022-10-31T08:42:14;17.48;;;6.63;;
485;SDS011;229;48.734;9.340;2022-10-31T08:44:41;11.98;;;7.10;;
485;SDS011;229;48.734;9.340;2022-10-31T08:47:10;12.77;;;8.18;;
485;SDS011;229;48.734;9.340;2022-10-31T08:49:37;14.70;;;7.65;;
485;SDS011;229;48.734;9.340;2022-10-31T08:52:04;13.27;;;6.80;;
485;SDS011;229;48.734;9.340;2022-10-31T08:54:31;12.95;;;6.80;;
485;SDS011;229;48.734;9.340;2022-10-31T08:56:58;14.68;;;7.97;;
485;SDS011;229;48.734;9.340;2022-10-31T08:59:25;15.02;;;7.40;;
485;SDS011;229;48.734;9.340;2022-10-31T09:01:52;16.35;;;7.10;;
485;SDS011;229;48.734;9.340;2022-10-31T09:04:21;11.07;;;6.78;;
485;SDS011;229;48.734;9.340;2022-10-31T09:06:48;11.70;;;6.93;;
485;SDS011;229;48.734;9.340;2022-10-31T09:09:15;11.65;;;6.35;;
485;SDS011;229;48.734;9.340;2022-10-31T09:11:42;13.63;;;6.95;;
485;SDS011;229;48.734;9.340;2022-10-31T09:14:10;12.88;;;6.80;;
485;SDS011;229;48.734;9.340;2022-10-31T09:16:37;13.50;;;6.10;;
485;SDS011;229;48.734;9.340;2022-10-31T09:19:04;16.65;;;7.25;;
485;SDS011;229;48.734;9.340;2022-10-31T09:21:32;11.13;;;6.25;;
485;SDS011;229;48.734;9.340;2022-10-31T09:23:59;13.57;;;6.70;;
485;SDS011;229;48.734;9.340;2022-10-31T09:26:27;12.38;;;6.88;;
485;SDS011;229;48.734;9.340;2022-10-31T09:28:54;13.85;;;6.97;;
485;SDS011;229;48.734;9.340;2022-10-31T09:31:22;13.13;;;6.15;;
485;SDS011;229;48.734;9.340;2022-10-31T09:33:49;18.10;;;6.95;;
485;SDS011;229;48.734;9.340;2022-10-31T09:36:19;13.68;;;7.70;;
485;SDS011;229;48.734;9.340;2022-10-31T09:38:48;16.15;;;7.10;;
485;SDS011;229;48.734;9.340;2022-10-31T09:41:17;13.57;;;6.95;;
485;SDS011;229;48.734;9.340;2022-10-31T09:43:48;22.30;;;7.03;;
485;SDS011;229;48.734;9.340;2022-10-31T09:46:19;7.50;;;6.03;;
485;SDS011;229;48.734;9.340;2022-10-31T09:48:55;15.75;;;7.07;;
485;SDS011;229;48.734;9.340;2022-10-31T09:51:28;12.02;;;6.57;;
485;SDS011;229;48.734;9.340;2022-10-31T09:53:59;13.00;;;6.30;;
485;SDS011;229;48.734;9.340;2022-10-31T09:56:27;13.43;;;7.35;;
485;SDS011;229;48.734;9.340;2022-10-31T09:58:55;14.32;;;7.53;;
485;SDS011;229;48.734;9.340;2022-10-31T10:01:39;11.50;;;6.25;;
485;SDS011;229;48.734;9.340;2022-10-31T10:04:14;21.48;;;6.60;;
485;SDS011;229;48.734;9.340;2022-10-31T10:06:46;12.77;;;6.05;;
485;SDS011;229;48.734;9.340;2022-10-31T10:09:15;14.15;;;6.72;;
485;SDS011;229;48.734;9.340;2022-10-31T10:11:46;9.77;;;6.47;;
485;SDS011;229;48.734;9.340;2022-10-31T10:14:21;12.57;;;6.80;;
485;SDS011;229;48.734;9.340;2022-10-31T10:16:54;12.98;;;7.57;;
485;SDS011;229;48.734;9.340;2022-10-31T10:19:38;11.52;;;5.80;;
485;SDS011;229;48.734;9.340;2022-10-31T10:22:09;12.88;;;6.68;;
485;SDS011;229;48.734;9.340;2022-10-31T10:24:48;12.40;;;7.13;;
485;SDS011;229;48.734;9.340;2022-10-31T10:27:18;10.43;;;6.53;;
485;SDS011;229;48.734;9.340;2022-10-31T10:29:49;15.75;;;7.18;;
485;SDS011;229;48.734;9.340;2022-10-31T10:32:18;11.27;;;6.10;;
485;SDS011;229;48.734;9.340;2022-10-31T10:34:47;12.23;;;7.28;;
485;SDS011;229;48.734;9.340;2022-10-31T10:37:19;12.07;;;6.65;;
485;SDS011;229;48.734;9.340;2022-10-31T10:39:49;13.20;;;7.10;;
485;SDS011;229;48.734;9.340;2022-10-31T10:42:17;14.07;;;7.28;;
485;SDS011;229;48.734;9.340;2022-10-31T10:45:06;12.32;;;6.25;;
485;SDS011;229;48.734;9.340;2022-10-31T10:47:59;13.65;;;6.70;;
485;SDS011;229;48.734;9.340;2022-10-31T10:50:31;15.85;;;6.65;;
485;SDS011;229;48.734;9.340;2022-10-31T10:53:01;11.70;;;6.97;;
485;SDS011;229;48.734;9.340;2022-10-31T10:55:36;12.50;;;6.70;;
485;SDS011;229;48.734;9.340;2022-10-31T10:58:04;16.58;;;7.70;;
485;SDS011;229;48.734;9.340;2022-10-31T11:00:34;16.20;;;7.22;;
485;SDS011;229;48.734;9.340;2022-10-31T11:03:02;12.18;;;7.60;;
485;SDS011;229;48.734;9.340;2022-10-31T11:05:33;16.67;;;6.85;;
485;SDS011;229;48.734;9.340;2022-10-31T11:08:00;12.00;;;6.50;;
485;SDS011;229;48.734;9.340;2022-10-31T11:10:28;15.32;;;7.22;;
485;SDS011;229;48.734;9.340;2022-10-31T11:13:04;11.20;;;6.20;;
485;SDS011;229;48.734;9.340;2022-10-31T11:15:33;16.48;;;7.70;;
485;SDS011;229;48.734;9.340;2022-10-31T11:18:01;15.57;;;7.35;;
485;SDS011;229;48.734;9.340;2022-10-31T11:20:30;13.02;;;7.00;;
485;SDS011;229;48.734;9.340;2022-10-31T11:23:03;14.43;;;7.65;;
485;SDS011;229;48.734;9.340;2022-10-31T11:25:31;18.50;;;7.60;;
485;SDS011;229;48.734;9.340;2022-10-31T11:27:58;15.10;;;6.97;;
485;SDS011;229;48.734;9.340;2022-10-31T11:30:27;14.32;;;7.25;;
485;SDS011;229;48.734;9.340;2022-10-31T11:32:55;18.02;;;7.75;;
485;SDS011;229;48.734;9.340;2022-10-31T11:35:23;10.45;;;7.55;;
485;SDS011;229;48.734;9.340;2022-10-31T11:37:51;14.25;;;7.00;;
485;SDS011;229;48.734;9.340;2022-10-31T11:40:21;19.40;;;7.93;;
485;SDS011;229;48.734;9.340;2022-10-31T11:42:48;15.85;;;7.43;;
485;SDS011;229;48.734;9.340;2022-10-31T11:45:16;18.95;;;7.15;;
485;SDS011;229;48.734;9.340;2022-10-31T11:47:46;14.07;;;7.75;;
485;SDS011;229;48.734;9.340;2022-10-31T11:50:18;13.52;;;7.47;;
485;SDS011;229;48.734;9.340;2022-10-31T11:52:46;15.27;;;7.15;;
485;SDS011;229;48.734;9.340;2022-10-31T11:55:14;11.90;;;7.50;;
485;SDS011;229;48.734;9.340;2022-10-31T11:57:42;13.48;;;7.30;;
485;SDS011;229;48.734;9.340;2022-10-31T12:00:20;18.60;;;8.23;;
485;SDS011;229;48.734;9.340;2022-10-31T12:02:49;16.20;;;8.10;;
485;SDS011;229;48.734;9.340;2022-10-31T12:05:17;20.70;;;7.15;;
485;SDS011;229;48.734;9.340;2022-10-31T12:07:45;14.00;;;7.20;;
485;SDS011;229;48.734;9.340;2022-10-31T12:10:14;12.77;;;7.20;;
485;SDS011;229;48.734;9.340;2022-10-31T12:12:47;9.50;;;7.33;;
485;SDS011;229;48.734;9.340;2022-10-31T12:15:19;15.93;;;7.73;;
485;SDS011;229;48.734;9.340;2022-10-31T12:17:53;12.40;;;7.60;;
485;SDS011;229;48.734;9.340;2022-10-31T12:20:23;15.97;;;7.40;;
485;SDS011;229;48.734;9.340;2022-10-31T12:22:55;14.03;;;7.90;;
485;SDS011;229;48.734;9.340;2022-10-31T12:25:28;13.70;;;7.23;;
485;SDS011;229;48.734;9.340;2022-10-31T12:30:46;10.57;;;7.07;;
485;SDS011;229;48.734;9.340;2022-10-31T12:33:26;13.43;;;7.20;;
485;SDS011;229;48.734;9.340;2022-10-31T12:36:01;14.37;;;7.57;;
485;SDS011;229;48.734;9.340;2022-10-31T12:38:37;17.75;;;6.80;;
485;SDS011;229;48.734;9.340;2022-10-31T12:41:14;12.60;;;7.13;;
485;SDS011;229;48.734;9.340;2022-10-31T12:43:46;14.27;;;7.67;;
485;SDS011;229;48.734;9.340;2022-10-31T12:46:16;16.37;;;8.40;;
485;SDS011;229;48.734;9.340;2022-10-31T12:49:00;12.03;;;7.33;;
485;SDS011;229;48.734;9.340;2022-10-31T12:51:34;14.93;;;7.82;;
485;SDS011;229;48.734;9.340;2022-10-31T12:54:09;13.70;;;7.30;;
485;SDS011;229;48.734;9.340;2022-10-31T12:56:41;14.40;;;7.20;;
485;SDS011;229;48.734;9.340;2022-10-31T12:59:13;17.60;;;7.60;;
485;SDS011;229;48.734;9.340;2022-10-31T13:01:44;16.43;;;7.90;;
485;SDS011;229;48.734;9.340;2022-10-31T13:04:14;17.47;;;7.97;;
485;SDS011;229;48.734;9.340;2022-10-31T13:06:44;12.30;;;7.77;;
485;SDS011;229;48.734;9.340;2022-10-31T13:09:15;14.00;;;7.00;;
485;SDS011;229;48.734;9.340;2022-10-31T13:11:45;13.90;;;7.00;;
485;SDS011;229;48.734;9.340;2022-10-31T13:14:15;12.60;;;6.90;;
485;SDS011;229;48.734;9.340;2022-10-31T13:16:46;15.27;;;7.50;;
485;SDS011;229;48.734;9.340;2022-10-31T13:19:17;14.43;;;6.60;;
485;SDS011;229;48.734;9.340;2022-10-31T13:21:48;16.67;;;7.00;;
485;SDS011;229;48.734;9.340;2022-10-31T13:24:18;13.57;;;7.35;;
485;SDS011;229;48.734;9.340;2022-10-31T13:26:47;13.73;;;7.40;;
485;SDS011;229;48.734;9.340;2022-10-31T13:29:17;14.60;;;7.73;;
485;SDS011;229;48.734;9.340;2022-10-31T13:31:45;14.50;;;7.40;;
485;SDS011;229;48.734;9.340;2022-10-31T13:34:18;13.33;;;8.40;;
485;SDS011;229;48.734;9.340;2022-10-31T13:36:48;15.70;;;7.90;;
485;SDS011;229;48.734;9.340;2022-10-31T13:39:19;23.33;;;8.13;;
485;SDS011;229;48.734;9.340;2022-10-31T13:41:51;19.90;;;7.67;;
485;SDS011;229;48.734;9.340;2022-10-31T13:44:20;11.50;;;7.17;;
485;SDS011;229;48.734;9.340;2022-10-31T13:46:49;13.13;;;6.90;;
485;SDS011;229;48.734;9.340;2022-10-31T13:49:25;16.03;;;8.07;;
485;SDS011;229;48.734;9.340;2022-10-31T13:51:53;13.70;;;8.37;;
485;SDS011;229;48.734;9.340;2022-10-31T13:54:20;16.23;;;6.97;;
485;SDS011;229;48.734;9.340;2022-10-31T13:56:48;13.77;;;7.78;;
485;SDS011;229;48.734;9.340;2022-10-31T13:59:17;18.67;;;6.77;;
485;SDS011;229;48.734;9.340;2022-10-31T14:01:46;11.57;;;6.50;;
485;SDS011;229;48.734;9.340;2022-10-31T14:04:14;9.80;;;6.70;;
485;SDS011;229;48.734;9.340;2022-10-31T14:06:44;14.03;;;7.07;;
485;SDS011;229;48.734;9.340;2022-10-31T14:09:19;20.60;;;7.70;;
485;SDS011;229;48.734;9.340;2022-10-31T14:11:47;12.73;;;7.50;;
485;SDS011;229;48.734;9.340;2022-10-31T14:14:15;16.83;;;8.60;;
485;SDS011;229;48.734;9.340;2022-10-31T14:16:42;12.53;;;7.67;;
485;SDS011;229;48.734;9.340;2022-10-31T14:19:14;24.87;;;10.30;;
485;SDS011;229;48.734;9.340;2022-10-31T14:21:44;27.77;;;13.43;;
485;SDS011;229;48.734;9.340;2022-10-31T14:24:15;21.13;;;9.80;;
485;SDS011;229;48.734;9.340;2022-10-31T14:26:50;17.00;;;9.57;;
485;SDS011;229;48.734;9.340;2022-10-31T14:29:22;19.27;;;8.10;;
485;SDS011;229;48.734;9.340;2022-10-31T14:31:54;13.43;;;6.67;;
485;SDS011;229;48.734;9.340;2022-10-31T14:34:23;14.97;;;6.83;;
485;SDS011;229;48.734;9.340;2022-10-31T14:36:54;15.03;;;6.97;;
485;SDS011;229;48.734;9.340;2022-10-31T14:39:24;12.67;;;7.47;;
485;SDS011;229;48.734;9.340;2022-10-31T14:41:56;14.93;;;7.10;;
485;SDS011;229;48.734;9.340;2022-10-31T14:44:32;12.07;;;6.80;;
485;SDS011;229;48.734;9.340;2022-10-31T14:47:08;13.93;;;6.63;;
485;SDS011;229;48.734;9.340;2022-10-31T14:49:44;13.30;;;7.40;;
485;SDS011;229;48.734;9.340;2022-10-31T14:52:16;15.63;;;7.10;;
485;SDS011;229;48.734;9.340;2022-10-31T14:54:48;14.23;;;6.93;;
485;SDS011;229;48.734;9.340;2022-10-31T14:57:26;14.70;;;6.93;;
485;SDS011;229;48.734;9.340;2022-10-31T14:59:55;17.55;;;7.05;;
485;SDS011;229;48.734;9.340;2022-10-31T15:02:23;18.13;;;6.60;;
485;SDS011;229;48.734;9.340;2022-10-31T15:04:52;12.43;;;7.63;;
485;SDS011;229;48.734;9.340;2022-10-31T15:07:22;11.73;;;6.50;;
485;SDS011;229;48.734;9.340;2022-10-31T15:09:56;11.45;;;6.50;;
485;SDS011;229;48.734;9.340;2022-10-31T15:12:25;19.03;;;9.27;;
485;SDS011;229;48.734;9.340;2022-10-31T15:14:52;12.07;;;7.80;;
485;SDS011;229;48.734;9.340;2022-10-31T15:17:20;14.80;;;8.10;;
485;SDS011;229;48.734;9.340;2022-10-31T15:19:47;16.70;;;7.27;;
485;SDS011;229;48.734;9.340;2022-10-31T15:22:15;11.82;;;6.68;;
485;SDS011;229;48.734;9.340;2022-10-31T15:24:44;15.95;;;7.25;;
485;SDS011;229;48.734;9.340;2022-10-31T15:27:12;21.05;;;8.43;;
485;SDS011;229;48.734;9.340;2022-10-31T15:29:47;16.20;;;8.20;;
485;SDS011;229;48.734;9.340;2022-10-31T15:32:19;13.77;;;8.05;;
485;SDS011;229;48.734;9.340;2022-10-31T15:34:47;21.00;;;8.80;;
485;SDS011;229;48.734;9.340;2022-10-31T15:37:15;17.38;;;8.90;;
485;SDS011;229;48.734;9.340;2022-10-31T15:39:45;15.30;;;9.27;;
485;SDS011;229;48.734;9.340;2022-10-31T15:42:17;24.88;;;9.85;;
485;SDS011;229;48.734;9.340;2022-10-31T15:44:45;25.27;;;12.25;;
485;SDS011;229;48.734;9.340;2022-10-31T15:47:15;23.30;;;12.32;;
485;SDS011;229;48.734;9.340;2022-10-31T15:49:46;29.17;;;12.52;;
485;SDS011;229;48.734;9.340;2022-10-31T15:52:15;24.48;;;12.52;;
485;SDS011;229;48.734;9.340;2022-10-31T15:54:46;31.20;;;14.77;;